Time;durP1;ratioP1;P1;durP2;ratioP2;P2;SDS_P1;SDS_P2;PMS_P1;PMS_P2;Temp;Humidity;BMP_temperature;BMP_pressure;BME280_temperature;BME280_humidity;BME280_pressure;Samples;Min_cycle;Max_cycle;Signal;HPM_P1;HPM_P2
2022/04/30 00:01:30;;;;;;;2.70;2.10;;;16.90;81.20;;;;;;5063825;28;20514;-65
2022/04/30 00:04:01;;;;;;;1.73;1.63;;;16.80;90.10;;;;;;5063379;28;20525;-65
2022/04/30 00:06:32;;;;;;;2.10;1.90;;;16.50;87.80;;;;;;5061727;28;20463;-67
2022/04/30 00:09:04;;;;;;;2.23;2.03;;;16.30;93.40;;;;;;5058426;28;20513;-66
2022/04/30 00:11:35;;;;;;;2.83;1.93;;;16.10;91.80;;;;;;5060924;28;20499;-66
2022/04/30 00:14:07;;;;;;;2.17;2.07;;;16.10;91.30;;;;;;5058193;28;20488;-65
2022/04/30 00:16:38;;;;;;;1.90;1.80;;;16.30;91.20;;;;;;5055352;28;20887;-66
2022/04/30 00:19:09;;;;;;;4.03;1.90;;;16.30;90.60;;;;;;5056849;28;20586;-66
2022/04/30 00:21:40;;;;;;;4.07;2.57;;;16.40;90.00;;;;;;5064115;28;20880;-66
2022/04/30 00:24:12;;;;;;;1.93;1.83;;;16.40;92.60;;;;;;5062790;28;20431;-66
2022/04/30 00:26:43;;;;;;;1.93;1.83;;;16.40;92.90;;;;;;5044138;28;20449;-66
2022/04/30 00:29:14;;;;;;;2.60;2.23;;;16.50;93.30;;;;;;5055481;28;20471;-65
2022/04/30 00:31:45;;;;;;;2.37;2.00;;;16.60;91.20;;;;;;5043533;28;20571;-65
2022/04/30 00:34:16;;;;;;;2.37;2.20;;;16.40;90.00;;;;;;5059829;28;20457;-65
2022/04/30 00:36:47;;;;;;;2.37;2.17;;;16.40;91.20;;;;;;5067126;28;20479;-65
2022/04/30 00:39:20;;;;;;;2.20;2.00;;;16.30;90.20;;;;;;5061530;28;20460;-64
2022/04/30 00:41:51;;;;;;;4.40;2.40;;;16.40;91.90;;;;;;5063059;28;20785;-65
2022/04/30 00:44:23;;;;;;;2.33;2.10;;;16.30;92.60;;;;;;5062527;28;20452;-65
2022/04/30 00:46:54;;;;;;;2.40;2.20;;;16.30;91.70;;;;;;5076719;28;20456;-65
2022/04/30 00:49:24;;;;;;;2.47;2.27;;;16.30;94.60;;;;;;5061772;28;20462;-65
2022/04/30 00:51:59;;;;;;;2.30;2.10;;;16.50;94.80;;;;;;5058940;28;20488;-65
2022/04/30 00:54:37;;;;;;;2.40;2.20;;;16.50;92.80;;;;;;5063685;28;20463;-66
2022/04/30 00:57:11;;;;;;;2.60;2.40;;;16.30;93.40;;;;;;5065548;28;20449;-65
2022/04/30 00:59:45;;;;;;;2.00;1.90;;;16.30;96.30;;;;;;5045410;28;20464;-66
2022/04/30 01:02:16;;;;;;;2.43;2.23;;;16.00;96.90;;;;;;5061277;28;20456;-65
2022/04/30 01:04:47;;;;;;;4.80;2.30;;;15.90;98.60;;;;;;5061638;28;20528;-66
2022/04/30 01:07:19;;;;;;;2.17;2.00;;;15.80;95.00;;;;;;5061096;28;20471;-67
2022/04/30 01:09:54;;;;;;;2.70;2.50;;;15.80;96.00;;;;;;5061749;28;20456;-68
2022/04/30 01:12:25;;;;;;;2.30;2.10;;;15.70;97.50;;;;;;5059860;28;20534;-68
2022/04/30 01:14:58;;;;;;;2.90;2.70;;;15.70;99.50;;;;;;5065455;28;20462;-68
2022/04/30 01:17:29;;;;;;;3.40;2.97;;;15.50;99.90;;;;;;5062701;28;20899;-69
2022/04/30 01:20:01;;;;;;;2.40;2.20;;;15.50;99.90;;;;;;5060227;28;20470;-66
2022/04/30 01:22:35;;;;;;;3.33;2.00;;;15.40;99.70;;;;;;5061436;28;20451;-70
2022/04/30 01:25:08;;;;;;;2.63;2.30;;;15.30;99.90;;;;;;5060086;28;20468;-65
2022/04/30 01:27:39;;;;;;;2.27;2.07;;;15.20;99.90;;;;;;5060581;28;20468;-65
2022/04/30 01:30:13;;;;;;;2.90;2.50;;;15.10;99.90;;;;;;5042734;28;20426;-69
2022/04/30 01:38:20;;;;;;;2.77;2.57;;;14.80;99.90;;;;;;5058222;28;20460;-67
2022/04/30 01:40:52;;;;;;;2.33;2.13;;;14.70;99.90;;;;;;5062751;28;20467;-64
2022/04/30 01:43:24;;;;;;;2.70;2.50;;;14.50;99.90;;;;;;5058430;28;20468;-64
2022/04/30 01:45:56;;;;;;;2.57;2.37;;;14.50;99.90;;;;;;5055420;28;20595;-64
2022/04/30 01:48:27;;;;;;;2.87;2.60;;;14.50;99.90;;;;;;5054450;28;20545;-67
2022/04/30 01:50:58;;;;;;;2.73;2.53;;;14.40;99.90;;;;;;5061958;28;20531;-65
2022/04/30 01:53:30;;;;;;;2.70;2.50;;;14.40;99.90;;;;;;5060998;28;20474;-65
2022/04/30 01:56:03;;;;;;;2.80;2.60;;;14.30;99.90;;;;;;5060637;28;20464;-69
2022/04/30 01:58:36;;;;;;;2.70;2.50;;;14.30;99.90;;;;;;5052960;28;20456;-68
2022/04/30 02:01:09;;;;;;;2.90;2.30;;;14.20;99.90;;;;;;5061994;28;20456;-68
2022/04/30 02:03:43;;;;;;;3.33;2.50;;;14.10;99.90;;;;;;5063472;28;20550;-68
2022/04/30 02:06:15;;;;;;;2.60;2.40;;;14.10;99.90;;;;;;5062303;28;20492;-68
2022/04/30 02:08:46;;;;;;;2.77;2.50;;;14.00;99.90;;;;;;5061648;28;20467;-66
2022/04/30 02:11:18;;;;;;;3.13;2.83;;;14.00;99.90;;;;;;5069131;28;20462;-66
2022/04/30 02:13:53;;;;;;;2.47;2.27;;;13.90;99.90;;;;;;5065040;28;20487;-66
2022/04/30 02:16:24;;;;;;;3.03;2.73;;;13.80;99.90;;;;;;5066862;28;20452;-65
2022/04/30 02:18:58;;;;;;;2.73;2.53;;;13.80;99.90;;;;;;5070557;28;20463;-66
2022/04/30 02:21:30;;;;;;;3.33;2.73;;;13.70;99.90;;;;;;5067535;28;20448;-66
2022/04/30 02:24:02;;;;;;;2.57;2.37;;;13.60;99.90;;;;;;5068861;28;20485;-65
2022/04/30 02:26:34;;;;;;;3.13;2.80;;;13.70;99.90;;;;;;5071459;28;20444;-65
2022/04/30 02:29:07;;;;;;;3.23;2.93;;;13.70;99.90;;;;;;5068284;28;20448;-65
2022/04/30 02:31:38;;;;;;;3.87;3.13;;;13.70;99.90;;;;;;5068217;28;20447;-65
2022/04/30 02:34:09;;;;;;;5.27;3.03;;;13.60;99.90;;;;;;5067381;28;20452;-66
2022/04/30 02:36:40;;;;;;;3.33;3.00;;;13.70;99.90;;;;;;5067629;28;20439;-65
2022/04/30 02:39:11;;;;;;;3.60;3.30;;;13.70;99.90;;;;;;5063819;28;20456;-63
2022/04/30 02:41:43;;;;;;;2.87;2.67;;;13.60;99.90;;;;;;5061788;28;20536;-63
2022/04/30 02:44:14;;;;;;;3.27;2.97;;;13.70;99.90;;;;;;5048732;28;20458;-63
2022/04/30 02:46:45;;;;;;;3.60;3.07;;;13.70;99.90;;;;;;5065247;28;20456;-63
2022/04/30 02:49:16;;;;;;;3.50;3.20;;;13.60;99.90;;;;;;5073285;28;20459;-65
2022/04/30 02:51:47;;;;;;;4.37;3.97;;;13.50;99.90;;;;;;5066977;28;20866;-63
2022/04/30 02:54:18;;;;;;;4.50;4.07;;;13.40;99.90;;;;;;5063726;28;20801;-64
2022/04/30 02:56:50;;;;;;;4.47;4.13;;;13.40;99.90;;;;;;5073921;28;20464;-64
2022/04/30 03:02:08;;;;;;;4.33;3.87;;;13.40;99.90;;;;;;5062838;28;20555;-63
2022/04/30 03:04:40;;;;;;;4.90;4.40;;;13.40;99.90;;;;;;5063800;28;20458;-64
2022/04/30 03:07:11;;;;;;;5.30;4.40;;;13.30;99.90;;;;;;5065802;28;20513;-64
2022/04/30 03:09:42;;;;;;;5.07;4.13;;;13.30;99.90;;;;;;5064067;28;20455;-65
2022/04/30 03:12:15;;;;;;;4.23;3.93;;;13.20;99.90;;;;;;5064630;28;20561;-64
2022/04/30 03:14:46;;;;;;;4.83;4.33;;;13.20;99.90;;;;;;5066039;28;20819;-64
2022/04/30 03:22:56;;;;;;;6.13;4.23;;;13.00;99.90;;;;;;5064654;28;20911;-65
2022/04/30 03:25:27;;;;;;;7.20;4.40;;;12.90;99.90;;;;;;5063389;28;20455;-64
2022/04/30 03:27:59;;;;;;;7.00;3.90;;;12.80;99.90;;;;;;5064484;28;20472;-65
2022/04/30 03:30:30;;;;;;;5.30;4.23;;;12.80;99.90;;;;;;5068602;28;20463;-64
2022/04/30 03:33:01;;;;;;;5.47;4.40;;;12.70;99.90;;;;;;5070846;28;20500;-64
2022/04/30 03:35:32;;;;;;;5.17;3.90;;;12.70;99.90;;;;;;5065989;28;20455;-64
2022/04/30 03:38:02;;;;;;;5.37;4.47;;;12.70;99.90;;;;;;5063903;28;20448;-64
2022/04/30 03:40:34;;;;;;;4.40;3.90;;;12.70;99.90;;;;;;5068987;28;20453;-64
2022/04/30 03:43:06;;;;;;;6.47;5.17;;;12.60;99.90;;;;;;5064397;28;20456;-64
2022/04/30 03:45:37;;;;;;;5.30;4.40;;;12.60;99.90;;;;;;5062453;28;20456;-64
2022/04/30 03:48:09;;;;;;;4.77;4.23;;;12.60;99.90;;;;;;5063606;28;20791;-64
2022/04/30 03:50:41;;;;;;;5.43;4.90;;;12.50;99.90;;;;;;5067180;28;20456;-65
2022/04/30 03:53:12;;;;;;;7.03;4.70;;;12.60;99.90;;;;;;5070331;28;20472;-65
2022/04/30 03:55:43;;;;;;;6.03;4.93;;;12.50;99.90;;;;;;5062249;28;20562;-64
2022/04/30 03:58:16;;;;;;;6.17;4.60;;;12.50;99.90;;;;;;5061247;28;20460;-65
2022/04/30 04:00:48;;;;;;;4.93;4.47;;;12.50;99.90;;;;;;5063587;28;20459;-64
2022/04/30 04:03:19;;;;;;;4.80;4.40;;;12.40;99.90;;;;;;5060891;28;20471;-65
2022/04/30 04:05:51;;;;;;;6.60;5.20;;;12.40;99.90;;;;;;5062025;28;20456;-64
2022/04/30 04:08:21;;;;;;;10.67;6.00;;;12.30;99.90;;;;;;5060909;28;20535;-64
2022/04/30 04:10:52;;;;;;;5.67;5.03;;;12.30;99.90;;;;;;5060328;28;20459;-63
2022/04/30 04:19:00;;;;;;;6.53;5.33;;;12.20;99.90;;;;;;5063494;28;20484;-64
2022/04/30 04:21:31;;;;;;;6.23;5.63;;;12.10;99.90;;;;;;5069472;28;20459;-64
2022/04/30 04:26:49;;;;;;;10.70;5.40;;;12.10;99.90;;;;;;5063745;28;22496;-68
2022/04/30 04:29:22;;;;;;;7.30;5.30;;;12.10;99.90;;;;;;5063866;28;20447;-66
2022/04/30 04:31:52;;;;;;;5.20;4.70;;;12.00;99.90;;;;;;5065056;28;20459;-67
2022/04/30 04:34:23;;;;;;;6.63;5.10;;;12.00;99.90;;;;;;5065167;28;20518;-66
2022/04/30 04:36:54;;;;;;;5.30;4.43;;;12.00;99.90;;;;;;5064107;28;20499;-66
2022/04/30 04:39:25;;;;;;;6.20;4.50;;;11.90;99.90;;;;;;5062471;28;20575;-66
2022/04/30 04:41:56;;;;;;;7.07;5.47;;;11.90;99.90;;;;;;5065406;28;20474;-63
2022/04/30 04:44:28;;;;;;;5.60;5.10;;;11.90;99.90;;;;;;5065088;28;20564;-67
2022/04/30 04:47:03;;;;;;;6.17;5.57;;;11.90;99.90;;;;;;5065462;28;20535;-65
2022/04/30 04:49:34;;;;;;;5.60;5.10;;;11.90;99.90;;;;;;5068660;28;20446;-67
2022/04/30 04:52:05;;;;;;;7.10;6.03;;;11.80;99.90;;;;;;5068775;28;20564;-66
2022/04/30 04:54:39;;;;;;;5.90;5.33;;;11.80;99.90;;;;;;5062303;28;20523;-67
2022/04/30 04:57:10;;;;;;;8.63;5.93;;;11.80;99.90;;;;;;5058734;28;20457;-66
2022/04/30 04:59:45;;;;;;;7.80;4.83;;;11.80;99.90;;;;;;5055034;28;20457;-66
2022/04/30 05:02:18;;;;;;;6.00;5.27;;;11.70;99.90;;;;;;5059544;28;20597;-66
2022/04/30 05:04:49;;;;;;;5.77;5.00;;;11.70;99.90;;;;;;5048214;28;20590;-65
2022/04/30 05:07:20;;;;;;;5.30;4.80;;;11.60;99.90;;;;;;5061635;28;20464;-66
2022/04/30 05:09:51;;;;;;;5.60;5.00;;;11.70;99.90;;;;;;5064479;28;20491;-65
2022/04/30 05:12:22;;;;;;;9.50;5.53;;;11.60;99.90;;;;;;5059985;28;20452;-65
2022/04/30 05:14:54;;;;;;;5.87;5.33;;;11.60;99.90;;;;;;5061281;28;20959;-64
2022/04/30 05:17:27;;;;;;;5.67;4.60;;;11.60;99.90;;;;;;5056481;28;20452;-64
2022/04/30 05:19:58;;;;;;;6.07;5.47;;;11.60;99.90;;;;;;5061506;28;20971;-64
2022/04/30 05:22:31;;;;;;;6.77;5.83;;;11.60;99.90;;;;;;5061953;28;20831;-64
2022/04/30 05:25:02;;;;;;;5.63;5.13;;;11.60;99.90;;;;;;5059689;28;20512;-64
2022/04/30 05:27:32;;;;;;;7.30;5.83;;;11.60;99.90;;;;;;5057545;28;20528;-63
2022/04/30 05:30:06;;;;;;;6.03;5.37;;;11.60;99.90;;;;;;5059956;28;20490;-62
2022/04/30 05:32:36;;;;;;;7.33;6.37;;;11.60;99.90;;;;;;5060007;28;20471;-62
2022/04/30 05:35:08;;;;;;;7.60;6.30;;;11.60;99.90;;;;;;5060401;28;20619;-62
2022/04/30 05:37:40;;;;;;;6.53;5.93;;;11.60;99.90;;;;;;5061029;28;20536;-62
2022/04/30 05:40:11;;;;;;;6.13;5.50;;;11.50;99.90;;;;;;5057546;28;20936;-63
2022/04/30 05:42:43;;;;;;;6.47;5.87;;;11.60;99.90;;;;;;5060246;28;20452;-63
2022/04/30 05:45:15;;;;;;;7.60;6.90;;;11.60;99.90;;;;;;5060951;28;20559;-63
2022/04/30 05:47:46;;;;;;;6.50;6.00;;;11.60;99.90;;;;;;5061811;28;20460;-63
2022/04/30 05:50:17;;;;;;;7.43;6.50;;;11.60;99.90;;;;;;5060443;28;20475;-63
2022/04/30 05:52:48;;;;;;;7.00;5.93;;;11.60;99.90;;;;;;5064464;28;20463;-63
2022/04/30 05:55:19;;;;;;;6.23;5.63;;;11.60;99.90;;;;;;5059950;28;20495;-63
2022/04/30 05:57:50;;;;;;;8.10;6.03;;;11.60;99.90;;;;;;5053671;28;20457;-63
2022/04/30 06:00:23;;;;;;;6.40;5.73;;;11.50;99.90;;;;;;5060789;28;20460;-63
2022/04/30 06:02:54;;;;;;;6.80;6.20;;;11.50;99.90;;;;;;5060906;28;20587;-63
2022/04/30 06:05:26;;;;;;;8.40;6.80;;;11.40;99.90;;;;;;5059317;28;20476;-63
2022/04/30 06:07:57;;;;;;;7.07;6.37;;;11.50;99.90;;;;;;5065127;28;20471;-63
2022/04/30 06:10:27;;;;;;;6.63;6.03;;;11.50;99.90;;;;;;5059322;28;20458;-64
2022/04/30 06:13:05;;;;;;;7.93;6.70;;;11.50;99.90;;;;;;5060535;28;20456;-63
2022/04/30 06:15:37;;;;;;;7.23;6.50;;;11.60;99.90;;;;;;5061007;28;20492;-63
2022/04/30 06:18:08;;;;;;;8.53;7.70;;;11.60;99.90;;;;;;5059443;28;20456;-63
2022/04/30 06:20:39;;;;;;;8.40;6.63;;;11.70;99.90;;;;;;5057529;28;20495;-63
2022/04/30 06:23:10;;;;;;;8.93;6.80;;;11.70;99.90;;;;;;5065210;28;20464;-64
2022/04/30 06:25:40;;;;;;;9.93;7.90;;;11.70;99.90;;;;;;5064333;28;20580;-64
2022/04/30 06:28:12;;;;;;;8.30;6.60;;;11.70;99.90;;;;;;5064713;28;20497;-63
2022/04/30 06:30:44;;;;;;;6.80;5.97;;;11.60;99.90;;;;;;5066666;28;20473;-63
2022/04/30 06:33:16;;;;;;;7.20;6.50;;;11.60;99.90;;;;;;5061821;28;20499;-63
2022/04/30 06:35:47;;;;;;;6.43;5.83;;;11.60;99.90;;;;;;5064527;28;20486;-63
2022/04/30 06:38:18;;;;;;;6.90;5.70;;;11.60;99.90;;;;;;5060504;28;20477;-63
2022/04/30 06:40:49;;;;;;;5.90;5.30;;;11.60;99.90;;;;;;5064677;28;20456;-63
2022/04/30 06:43:21;;;;;;;6.70;6.00;;;11.50;99.90;;;;;;5060832;28;20508;-63
2022/04/30 06:45:54;;;;;;;7.10;6.10;;;11.50;99.90;;;;;;5059392;28;20464;-63
2022/04/30 06:48:24;;;;;;;6.70;5.53;;;11.50;99.90;;;;;;5060778;28;20499;-63
2022/04/30 06:50:55;;;;;;;6.13;5.53;;;11.50;99.90;;;;;;5063588;28;20541;-63
2022/04/30 06:59:01;;;;;;;7.97;5.87;;;11.40;99.90;;;;;;5063823;28;20459;-64
2022/04/30 07:01:43;;;;;;;5.70;5.10;;;11.50;99.90;;;;;;5061540;28;20457;-63
2022/04/30 07:04:16;;;;;;;6.63;5.50;;;11.50;99.90;;;;;;5057213;28;20518;-63
2022/04/30 07:06:48;;;;;;;6.83;5.83;;;11.50;99.90;;;;;;5057290;28;20472;-62
2022/04/30 07:09:19;;;;;;;5.93;5.33;;;11.50;99.90;;;;;;5061034;28;20471;-63
2022/04/30 07:11:50;;;;;;;6.90;5.60;;;11.50;99.90;;;;;;5063257;28;20474;-63
2022/04/30 07:14:21;;;;;;;5.90;5.20;;;11.50;99.90;;;;;;5058676;28;20502;-63
2022/04/30 07:16:53;;;;;;;7.23;5.30;;;11.50;99.90;;;;;;5048608;28;20547;-63
2022/04/30 07:19:24;;;;;;;5.07;4.40;;;11.50;99.90;;;;;;5063342;28;20472;-63
2022/04/30 07:21:55;;;;;;;6.57;5.90;;;11.50;99.90;;;;;;5062519;28;20476;-63
2022/04/30 07:24:26;;;;;;;6.40;5.57;;;11.50;99.90;;;;;;5059756;28;20865;-63
2022/04/30 07:26:57;;;;;;;6.83;5.33;;;11.50;99.90;;;;;;5063940;28;20520;-63
2022/04/30 07:29:28;;;;;;;5.37;4.87;;;11.50;99.90;;;;;;5062676;28;20456;-63
2022/04/30 07:32:01;;;;;;;6.57;5.33;;;11.50;99.90;;;;;;5062983;28;20491;-63
2022/04/30 07:34:32;;;;;;;6.00;5.40;;;11.50;99.90;;;;;;5063037;28;20496;-63
2022/04/30 07:37:04;;;;;;;7.03;6.00;;;11.50;99.90;;;;;;5062346;28;20797;-62
2022/04/30 07:39:35;;;;;;;5.47;4.97;;;11.50;99.90;;;;;;5061346;28;20475;-62
2022/04/30 07:42:06;;;;;;;5.90;4.90;;;11.50;99.90;;;;;;5064659;28;20459;-62
2022/04/30 07:44:37;;;;;;;5.27;4.77;;;11.60;99.90;;;;;;5061928;28;20784;-62
2022/04/30 07:47:10;;;;;;;6.70;5.60;;;11.50;99.90;;;;;;5064991;28;20461;-61
2022/04/30 07:49:41;;;;;;;5.10;4.60;;;11.50;99.90;;;;;;5058919;28;20472;-62
2022/04/30 07:52:12;;;;;;;6.90;4.90;;;11.50;99.90;;;;;;5062062;28;20527;-62
2022/04/30 07:54:43;;;;;;;5.93;4.90;;;11.50;99.90;;;;;;5062249;28;20514;-64
2022/04/30 07:57:16;;;;;;;5.93;5.30;;;11.50;99.90;;;;;;5060664;28;20498;-62
2022/04/30 07:59:48;;;;;;;6.73;5.50;;;11.50;99.90;;;;;;5062521;28;20460;-63
2022/04/30 08:02:20;;;;;;;5.97;5.40;;;11.50;99.90;;;;;;5065602;28;20474;-62
2022/04/30 08:04:51;;;;;;;5.27;4.77;;;11.50;99.90;;;;;;5069316;28;20464;-62
2022/04/30 08:07:28;;;;;;;6.00;5.03;;;11.50;99.90;;;;;;5059780;28;20473;-63
2022/04/30 08:09:58;;;;;;;5.50;4.70;;;11.60;99.90;;;;;;5066171;28;20562;-62
2022/04/30 08:12:29;;;;;;;5.90;5.30;;;11.60;99.90;;;;;;5064479;28;20468;-63
2022/04/30 08:15:00;;;;;;;8.90;5.33;;;11.60;99.90;;;;;;5060994;28;20522;-62
2022/04/30 08:17:32;;;;;;;4.90;4.50;;;11.60;99.90;;;;;;5063165;28;20939;-63
2022/04/30 08:20:03;;;;;;;6.20;5.60;;;11.60;99.90;;;;;;5062031;28;20973;-62
2022/04/30 08:22:34;;;;;;;5.63;4.73;;;11.70;99.90;;;;;;5061671;28;20468;-63
2022/04/30 08:25:06;;;;;;;6.30;5.10;;;11.60;99.90;;;;;;5061734;28;20571;-63
2022/04/30 08:27:37;;;;;;;5.60;5.10;;;11.60;99.90;;;;;;5066169;28;20907;-63
2022/04/30 08:30:09;;;;;;;6.00;5.00;;;11.60;99.90;;;;;;5060763;28;20452;-62
2022/04/30 08:32:42;;;;;;;5.33;4.73;;;11.60;99.90;;;;;;5062229;28;20571;-63
2022/04/30 08:35:13;;;;;;;4.43;4.03;;;11.60;99.90;;;;;;5061231;28;20492;-62
2022/04/30 08:38:03;;;;;;;5.40;4.90;;;11.60;99.90;;;;;;5060408;28;20464;-63
2022/04/30 08:40:35;;;;;;;5.33;4.83;;;11.60;99.90;;;;;;5061048;28;20555;-62
2022/04/30 08:43:11;;;;;;;5.73;4.93;;;11.60;99.90;;;;;;5064926;28;20551;-63
2022/04/30 08:45:43;;;;;;;6.90;4.93;;;11.50;99.90;;;;;;5054919;28;20452;-63
2022/04/30 08:48:17;;;;;;;5.27;4.77;;;11.50;99.90;;;;;;5060838;28;20464;-63
2022/04/30 08:50:49;;;;;;;4.60;4.20;;;11.60;99.90;;;;;;5061716;28;20468;-62
2022/04/30 08:53:20;;;;;;;6.60;4.90;;;11.60;99.90;;;;;;5060405;28;20464;-63
2022/04/30 08:55:50;;;;;;;4.37;3.97;;;11.50;99.90;;;;;;5060843;28;20488;-62
2022/04/30 08:58:22;;;;;;;4.27;3.70;;;11.50;99.90;;;;;;5060917;28;20472;-63
2022/04/30 09:00:52;;;;;;;4.80;4.40;;;11.60;99.90;;;;;;5062176;28;20471;-63
2022/04/30 09:03:25;;;;;;;5.27;3.83;;;11.60;99.90;;;;;;5059862;28;20456;-63
2022/04/30 09:06:01;;;;;;;4.57;4.20;;;11.60;99.90;;;;;;5060931;28;20470;-63
2022/04/30 09:08:32;;;;;;;5.03;4.40;;;11.50;99.90;;;;;;5059226;28;20475;-62
2022/04/30 09:11:10;;;;;;;4.90;4.10;;;11.50;99.90;;;;;;5061053;28;20476;-62
2022/04/30 09:13:45;;;;;;;4.67;4.27;;;11.50;99.90;;;;;;5064526;28;20544;-63
2022/04/30 09:16:23;;;;;;;4.27;3.50;;;11.50;99.90;;;;;;5066312;28;20486;-63
2022/04/30 09:19:02;;;;;;;4.40;3.80;;;11.50;99.90;;;;;;5059206;28;20486;-62
2022/04/30 09:21:33;;;;;;;4.07;3.70;;;11.50;99.90;;;;;;5067240;28;20476;-62
2022/04/30 09:24:08;;;;;;;3.87;3.50;;;11.50;99.90;;;;;;5062832;28;20538;-63
2022/04/30 09:26:43;;;;;;;5.00;3.90;;;11.50;99.90;;;;;;5063076;28;20475;-63
2022/04/30 09:29:24;;;;;;;3.87;3.57;;;11.50;99.90;;;;;;5062960;28;20454;-63
2022/04/30 09:31:55;;;;;;;4.60;3.33;;;11.50;99.90;;;;;;5064279;28;20455;-63
2022/04/30 09:37:46;;;;;;;6.20;3.63;;;11.50;99.90;;;;;;5058111;28;20456;-63
2022/04/30 09:40:25;;;;;;;3.20;2.90;;;11.50;99.90;;;;;;5059297;28;20464;-62
2022/04/30 09:42:55;;;;;;;3.60;3.30;;;11.50;99.90;;;;;;5060687;28;20471;-62
2022/04/30 09:45:31;;;;;;;6.30;3.13;;;11.50;99.90;;;;;;5060888;28;20472;-62
2022/04/30 09:53:56;;;;;;;4.10;3.73;;;11.50;99.90;;;;;;5060327;28;20501;-62
2022/04/30 09:54:00;;;;;;;3.83;3.40;;;11.50;99.90;;;;;;5058995;28;20484;-62
2022/04/30 09:56:38;;;;;;;3.43;3.13;;;11.50;99.90;;;;;;5061289;28;20578;-63
2022/04/30 09:59:10;;;;;;;6.87;2.87;;;11.60;99.90;;;;;;5058107;28;20462;-62
2022/04/30 10:01:41;;;;;;;3.10;2.70;;;11.60;99.90;;;;;;5060259;28;20468;-62
2022/04/30 10:04:14;;;;;;;2.97;2.50;;;11.60;99.90;;;;;;5059642;28;20484;-62
2022/04/30 10:06:48;;;;;;;4.43;2.63;;;11.60;99.90;;;;;;5059017;28;20479;-63
2022/04/30 10:09:23;;;;;;;3.40;3.10;;;11.60;99.90;;;;;;5063042;28;20464;-62
2022/04/30 10:12:05;;;;;;;2.80;2.60;;;11.60;99.90;;;;;;5060116;28;20475;-62
2022/04/30 10:14:56;;;;;;;2.57;2.30;;;11.60;99.90;;;;;;5056682;28;20492;-63
2022/04/30 10:17:29;;;;;;;2.57;2.37;;;11.70;99.90;;;;;;5061260;28;20487;-63
2022/04/30 10:20:01;;;;;;;2.00;1.90;;;11.70;99.90;;;;;;5052697;28;20471;-62
2022/04/30 10:22:33;;;;;;;3.17;2.60;;;11.70;99.90;;;;;;5061238;28;20453;-65
2022/04/30 10:25:07;;;;;;;3.10;2.53;;;11.70;99.90;;;;;;5059314;28;20468;-63
2022/04/30 10:27:42;;;;;;;2.60;2.40;;;11.70;99.90;;;;;;5059171;28;20464;-62
2022/04/30 10:30:27;;;;;;;2.80;2.20;;;11.70;99.90;;;;;;5061234;28;20471;-63
2022/04/30 10:33:01;;;;;;;3.07;2.77;;;11.70;99.90;;;;;;5061240;28;20578;-63
2022/04/30 10:35:36;;;;;;;4.10;2.70;;;11.70;99.90;;;;;;5061755;28;20456;-63
2022/04/30 10:38:11;;;;;;;2.00;1.90;;;11.70;99.90;;;;;;5064043;28;20466;-62
2022/04/30 10:40:43;;;;;;;2.90;2.60;;;11.80;99.90;;;;;;5064505;28;20464;-63
2022/04/30 10:43:21;;;;;;;2.40;2.20;;;11.80;99.90;;;;;;5066057;28;20478;-63
2022/04/30 10:45:52;;;;;;;2.63;2.37;;;11.80;99.90;;;;;;5064057;28;20460;-63
2022/04/30 10:48:22;;;;;;;2.73;2.43;;;11.70;99.90;;;;;;5068012;28;20464;-63
2022/04/30 10:51:05;;;;;;;2.43;1.80;;;11.70;99.90;;;;;;5064052;28;20464;-63
2022/04/30 10:53:41;;;;;;;3.00;2.00;;;11.80;99.90;;;;;;5064295;28;20535;-64
2022/04/30 10:56:12;;;;;;;1.80;1.70;;;11.70;99.90;;;;;;5066573;28;20482;-63
2022/04/30 10:58:43;;;;;;;2.40;2.20;;;11.80;99.90;;;;;;5066810;28;20942;-63
2022/04/30 11:01:15;;;;;;;2.50;1.77;;;11.80;99.90;;;;;;5064017;28;20660;-63
2022/04/30 11:03:48;;;;;;;2.40;1.80;;;11.80;99.90;;;;;;5064710;28;20966;-63
2022/04/30 11:06:21;;;;;;;2.10;1.90;;;11.90;99.90;;;;;;5063587;28;20464;-63
2022/04/30 11:09:01;;;;;;;3.40;2.37;;;11.80;99.90;;;;;;5064405;28;20808;-63
2022/04/30 11:11:33;;;;;;;2.83;1.43;;;11.80;99.90;;;;;;5065941;28;20456;-63
2022/04/30 11:14:05;;;;;;;2.50;1.80;;;11.80;99.90;;;;;;5066885;28;20489;-63
2022/04/30 11:16:37;;;;;;;2.30;2.10;;;11.80;99.90;;;;;;5065694;28;20488;-63
2022/04/30 11:19:11;;;;;;;2.27;2.00;;;11.90;99.90;;;;;;5063375;28;20464;-63
2022/04/30 11:21:43;;;;;;;1.63;1.20;;;11.90;99.90;;;;;;5055267;28;20596;-63
2022/04/30 11:24:25;;;;;;;2.30;1.50;;;11.90;99.90;;;;;;5062923;28;20452;-63
2022/04/30 11:26:58;;;;;;;2.47;1.70;;;11.90;99.90;;;;;;5062660;28;20546;-63
2022/04/30 11:29:32;;;;;;;1.63;1.40;;;11.90;99.90;;;;;;5062255;28;20864;-63
2022/04/30 11:32:04;;;;;;;1.63;1.53;;;12.00;99.90;;;;;;5064086;28;20462;-62
2022/04/30 11:34:35;;;;;;;2.40;2.20;;;12.00;99.90;;;;;;5062527;28;20504;-63
2022/04/30 11:37:07;;;;;;;3.13;1.57;;;12.00;99.90;;;;;;5057690;28;20495;-63
2022/04/30 11:39:44;;;;;;;2.37;1.80;;;12.00;99.90;;;;;;5061788;28;20946;-63
2022/04/30 11:42:15;;;;;;;2.30;1.80;;;12.00;99.90;;;;;;5059776;28;20841;-63
2022/04/30 11:44:46;;;;;;;1.43;1.33;;;11.90;99.90;;;;;;5059557;28;20468;-63
2022/04/30 11:47:17;;;;;;;3.27;2.60;;;11.90;99.90;;;;;;5063172;28;20463;-63
2022/04/30 11:49:48;;;;;;;2.33;2.13;;;12.00;99.90;;;;;;5051907;28;20471;-63
2022/04/30 11:52:20;;;;;;;1.80;1.70;;;11.90;99.90;;;;;;5062484;28;20480;-62
2022/04/30 11:54:52;;;;;;;2.60;2.20;;;11.90;99.90;;;;;;5060287;28;20472;-63
2022/04/30 11:57:23;;;;;;;2.13;1.80;;;11.90;99.90;;;;;;5060002;28;20481;-63
2022/04/30 11:59:58;;;;;;;2.23;2.03;;;11.90;99.90;;;;;;5064280;28;20491;-63
2022/04/30 12:02:31;;;;;;;2.53;2.07;;;11.90;99.90;;;;;;5062227;28;20463;-63
2022/04/30 12:05:04;;;;;;;2.57;2.10;;;11.90;99.90;;;;;;5058913;28;21015;-63
2022/04/30 12:07:42;;;;;;;2.50;2.30;;;11.80;99.90;;;;;;5061161;28;20962;-63
2022/04/30 12:10:22;;;;;;;2.33;2.13;;;11.90;99.90;;;;;;5058918;28;20468;-63
2022/04/30 12:12:53;;;;;;;3.20;2.80;;;11.90;99.90;;;;;;5066927;28;20467;-63
2022/04/30 12:15:25;;;;;;;2.57;2.37;;;11.80;99.90;;;;;;5065493;28;20483;-63
2022/04/30 12:26:55;;;;;;;3.53;2.23;;;11.90;99.90;;;;;;5065494;28;20569;-63
2022/04/30 12:29:27;;;;;;;2.93;2.10;;;11.90;99.90;;;;;;5066059;28;20478;-63
2022/04/30 12:31:58;;;;;;;2.63;2.43;;;11.80;99.90;;;;;;5063133;28;20482;-63
2022/04/30 12:34:32;;;;;;;3.43;1.83;;;11.80;99.90;;;;;;5063669;28;20496;-63
2022/04/30 12:37:04;;;;;;;2.33;2.13;;;11.90;99.90;;;;;;5061037;28;20494;-63
2022/04/30 12:39:35;;;;;;;3.33;2.53;;;11.90;99.90;;;;;;5062975;28;20463;-63
2022/04/30 12:42:11;;;;;;;2.67;2.30;;;11.90;99.90;;;;;;5062364;28;20475;-63
2022/04/30 12:44:41;;;;;;;3.23;2.93;;;11.90;99.90;;;;;;5064227;28;20569;-63
2022/04/30 12:47:12;;;;;;;4.00;2.50;;;11.90;99.90;;;;;;5066073;28;20459;-63
2022/04/30 12:49:43;;;;;;;2.47;2.27;;;11.90;99.90;;;;;;5057788;28;20488;-63
2022/04/30 12:52:15;;;;;;;3.50;2.43;;;11.90;99.90;;;;;;5062539;28;20706;-63
2022/04/30 12:54:46;;;;;;;3.47;3.00;;;11.90;99.90;;;;;;5061579;28;20460;-62
2022/04/30 12:57:18;;;;;;;2.10;1.90;;;11.80;99.90;;;;;;5058995;28;20492;-63
2022/04/30 12:59:50;;;;;;;2.60;2.27;;;11.90;99.90;;;;;;5056113;28;20491;-63
2022/04/30 13:02:23;;;;;;;2.63;2.43;;;11.90;99.90;;;;;;5060326;28;20468;-63
2022/04/30 13:04:54;;;;;;;2.30;2.10;;;12.00;99.90;;;;;;5061069;28;20503;-63
2022/04/30 13:07:25;;;;;;;4.47;2.07;;;12.00;99.90;;;;;;5060664;28;20475;-63
2022/04/30 13:15:32;;;;;;;2.50;2.23;;;12.00;99.90;;;;;;5060950;28;20484;-63
2022/04/30 13:18:03;;;;;;;3.00;1.83;;;12.00;99.90;;;;;;5060025;28;20567;-63
2022/04/30 13:20:34;;;;;;;2.57;2.37;;;12.00;99.90;;;;;;5059165;28;20468;-63
2022/04/30 13:23:05;;;;;;;2.90;2.50;;;12.00;99.90;;;;;;5060422;28;20484;-63
2022/04/30 13:25:36;;;;;;;2.70;2.43;;;12.00;99.90;;;;;;5061069;28;20460;-63
2022/04/30 13:28:08;;;;;;;2.43;2.23;;;12.00;99.90;;;;;;5060811;28;20464;-63
2022/04/30 13:30:39;;;;;;;2.20;2.00;;;12.00;99.90;;;;;;5061773;28;20464;-63
2022/04/30 13:33:10;;;;;;;2.87;2.53;;;12.00;99.90;;;;;;5059227;28;20518;-63
2022/04/30 13:35:41;;;;;;;3.60;2.10;;;12.00;99.90;;;;;;5062328;28;20460;-63
2022/04/30 13:38:12;;;;;;;2.90;2.40;;;12.00;99.90;;;;;;5058685;28;20491;-63
2022/04/30 13:40:45;;;;;;;4.00;2.77;;;12.10;99.90;;;;;;5060987;28;20460;-63
2022/04/30 13:43:17;;;;;;;2.77;2.57;;;12.10;99.90;;;;;;5058743;28;20532;-63
2022/04/30 13:45:48;;;;;;;2.50;2.30;;;12.10;99.90;;;;;;5060716;28;20460;-63
2022/04/30 13:48:19;;;;;;;3.43;2.70;;;12.10;99.90;;;;;;5059132;28;20899;-63
2022/04/30 13:50:52;;;;;;;2.40;2.20;;;12.10;99.90;;;;;;5060654;28;20463;-63
2022/04/30 13:53:22;;;;;;;2.93;2.40;;;12.20;99.90;;;;;;5059021;28;20468;-63
2022/04/30 13:55:53;;;;;;;2.77;2.53;;;12.30;99.90;;;;;;5061477;28;20456;-63
2022/04/30 13:58:26;;;;;;;2.60;2.40;;;12.40;99.90;;;;;;5059919;28;20516;-63
2022/04/30 14:00:57;;;;;;;3.90;2.17;;;12.40;99.90;;;;;;5057149;28;20483;-63
2022/04/30 14:03:28;;;;;;;2.03;1.93;;;12.40;99.90;;;;;;5059192;28;20456;-63